createdAt,value
2023-05-05T00:02:14.209Z,12.60
2023-05-05T00:04:41.102Z,12.60
2023-05-05T00:07:07.843Z,12.60
2023-05-05T00:09:34.545Z,12.60
2023-05-05T00:12:01.314Z,12.70
2023-05-05T00:14:28.085Z,12.80
2023-05-05T00:16:54.816Z,12.90
2023-05-05T00:19:21.671Z,12.90
2023-05-05T00:21:48.476Z,12.70
2023-05-05T00:24:15.275Z,12.80
2023-05-05T00:26:41.981Z,12.60
2023-05-05T00:29:08.784Z,12.70
2023-05-05T00:31:35.554Z,12.80
2023-05-05T00:34:02.362Z,12.80
2023-05-05T00:36:28.978Z,12.80
2023-05-05T00:38:55.653Z,12.80
2023-05-05T00:41:22.303Z,12.70
2023-05-05T00:43:48.917Z,12.60
2023-05-05T00:46:24.579Z,12.70
2023-05-05T00:48:52.482Z,12.60
2023-05-05T00:51:20.717Z,12.60
2023-05-05T00:53:50.886Z,12.60
2023-05-05T00:56:19.687Z,12.60
2023-05-05T00:58:46.714Z,12.60
2023-05-05T01:01:13.588Z,12.60
2023-05-05T01:03:43.592Z,12.60
2023-05-05T01:07:03.876Z,12.80
2023-05-05T01:09:42.376Z,12.60
2023-05-05T01:12:20.906Z,12.40
2023-05-05T01:15:01.214Z,12.20
2023-05-05T01:17:38.473Z,12.20
2023-05-05T01:20:23.774Z,12.20
2023-05-05T01:22:59.436Z,12.20
2023-05-05T01:25:29.216Z,12.30
2023-05-05T01:27:59.326Z,12.40
2023-05-05T01:30:56.503Z,12.50
2023-05-05T01:33:32.026Z,12.40
2023-05-05T01:36:05.671Z,12.30
2023-05-05T01:38:40.271Z,12.30
2023-05-05T01:41:17.242Z,12.30
2023-05-05T01:43:48.483Z,12.40
2023-05-05T01:46:16.382Z,12.30
2023-05-05T01:48:45.235Z,12.30
2023-05-05T01:51:13.142Z,12.30
2023-05-05T01:53:41.371Z,12.30
2023-05-05T01:56:09.580Z,12.30
2023-05-05T01:58:37.670Z,12.30
2023-05-05T02:01:05.465Z,12.40
2023-05-05T02:03:33.941Z,12.20
2023-05-05T02:06:01.457Z,12.20
2023-05-05T02:08:30.062Z,12.10
2023-05-05T02:10:57.580Z,12.00
2023-05-05T02:13:26.090Z,12.10
2023-05-05T02:15:54.741Z,12.20
2023-05-05T02:18:22.905Z,12.20
2023-05-05T02:20:50.485Z,12.20
2023-05-05T02:23:17.301Z,12.20
2023-05-05T02:25:57.492Z,12.00
2023-05-05T02:28:35.355Z,12.00
2023-05-05T02:31:04.257Z,11.90
2023-05-05T02:33:34.809Z,11.90
2023-05-05T02:36:14.279Z,11.90
2023-05-05T02:38:56.096Z,12.00
2023-05-05T02:41:25.419Z,12.10
2023-05-05T02:43:56.828Z,12.00
2023-05-05T02:46:23.732Z,11.90
2023-05-05T02:48:50.746Z,11.80
2023-05-05T02:51:17.412Z,11.70
2023-05-05T02:53:44.336Z,11.60
2023-05-05T02:56:41.047Z,11.60
2023-05-05T02:59:51.578Z,11.70
2023-05-05T03:02:46.586Z,11.70
2023-05-05T03:05:41.045Z,11.90
2023-05-05T03:08:18.143Z,11.80
2023-05-05T03:11:16.391Z,11.70
2023-05-05T03:13:44.678Z,11.70
2023-05-05T03:16:18.158Z,11.50
2023-05-05T03:18:46.881Z,11.50
2023-05-05T03:21:14.098Z,11.60
2023-05-05T03:23:42.512Z,11.70
2023-05-05T03:26:18.615Z,11.70
2023-05-05T03:28:46.307Z,11.40
2023-05-05T03:31:21.122Z,11.20
2023-05-05T03:33:52.734Z,11.20
2023-05-05T03:36:21.920Z,11.40
2023-05-05T03:38:48.771Z,11.60
2023-05-05T03:41:16.529Z,11.40
2023-05-05T03:43:43.230Z,11.40
2023-05-05T03:46:10.290Z,11.30
2023-05-05T03:48:37.409Z,11.40
2023-05-05T03:51:04.096Z,11.50
2023-05-05T03:53:33.325Z,11.50
2023-05-05T03:56:02.272Z,11.50
2023-05-05T03:58:28.916Z,11.50
2023-05-05T04:00:56.598Z,11.40
2023-05-05T04:03:23.506Z,11.20
2023-05-05T04:05:50.738Z,11.20
2023-05-05T04:08:17.382Z,11.00
2023-05-05T04:10:44.100Z,11.10
2023-05-05T04:13:11.090Z,11.20
2023-05-05T04:15:38.735Z,11.20
2023-05-05T04:18:05.534Z,11.30
2023-05-05T04:20:34.897Z,11.30
2023-05-05T04:23:01.580Z,11.30
2023-05-05T04:25:28.228Z,11.30
2023-05-05T04:27:55.232Z,11.30
2023-05-05T04:30:22.130Z,11.40
2023-05-05T04:32:48.968Z,11.50
2023-05-05T04:35:15.910Z,11.60
2023-05-05T04:37:46.571Z,11.70
2023-05-05T04:40:13.704Z,11.60
2023-05-05T04:42:40.962Z,11.70
2023-05-05T04:45:08.957Z,11.60
2023-05-05T04:47:40.271Z,11.80
2023-05-05T04:50:08.594Z,11.90
2023-05-05T04:52:35.723Z,11.90
2023-05-05T04:55:02.476Z,11.80
2023-05-05T04:57:30.573Z,11.70
2023-05-05T04:59:59.362Z,11.80
2023-05-05T05:02:26.961Z,11.80
2023-05-05T05:04:53.664Z,11.90
2023-05-05T05:07:20.846Z,12.00
2023-05-05T05:09:47.580Z,12.00
2023-05-05T05:12:14.765Z,12.10
2023-05-05T05:14:41.745Z,12.30
2023-05-05T05:17:08.517Z,12.40
2023-05-05T05:19:35.265Z,12.50
2023-05-05T05:22:02.580Z,12.50
2023-05-05T05:24:31.757Z,12.40
2023-05-05T05:26:58.630Z,12.40
2023-05-05T05:29:26.932Z,12.50
2023-05-05T05:31:54.085Z,12.50
2023-05-05T05:34:20.901Z,12.60
2023-05-05T05:36:47.894Z,12.70
2023-05-05T05:39:14.926Z,12.80
2023-05-05T05:41:41.669Z,12.60
2023-05-05T05:44:09.042Z,12.60
2023-05-05T05:46:36.066Z,12.60
2023-05-05T05:49:02.879Z,12.70
2023-05-05T05:51:30.281Z,12.70
2023-05-05T05:53:58.854Z,12.80
2023-05-05T05:56:26.320Z,13.10
2023-05-05T05:58:53.183Z,13.30
2023-05-05T06:01:20.350Z,13.30
2023-05-05T06:03:47.814Z,13.30
2023-05-05T06:06:17.321Z,13.10
2023-05-05T06:08:44.684Z,13.10
2023-05-05T06:11:11.568Z,13.10
2023-05-05T06:13:38.791Z,13.30
2023-05-05T06:16:06.708Z,13.50
2023-05-05T06:18:33.904Z,13.70
2023-05-05T06:21:01.032Z,13.90
2023-05-05T06:23:28.895Z,13.90
2023-05-05T06:26:00.537Z,14.10
2023-05-05T06:28:27.592Z,14.30
2023-05-05T06:30:54.211Z,14.30
2023-05-05T06:33:21.074Z,14.40
2023-05-05T06:35:52.744Z,14.30
2023-05-05T06:38:19.910Z,14.30
2023-05-05T06:40:50.034Z,14.20
2023-05-05T06:43:18.096Z,14.40
2023-05-05T06:45:52.479Z,14.50
2023-05-05T06:48:19.303Z,14.70
2023-05-05T06:50:45.993Z,14.90
2023-05-05T06:53:16.036Z,15.10
2023-05-05T06:55:45.071Z,15.20
2023-05-05T06:58:11.901Z,15.30
2023-05-05T07:00:39.479Z,15.40
2023-05-05T07:03:09.347Z,15.30
2023-05-05T07:05:38.895Z,15.30
2023-05-05T07:08:08.388Z,15.50
2023-05-05T07:10:35.223Z,15.50
2023-05-05T07:13:02.046Z,15.80
2023-05-05T07:15:29.773Z,16.10
2023-05-05T07:17:57.125Z,16.20
2023-05-05T07:20:24.661Z,16.30
2023-05-05T07:22:51.378Z,16.60
2023-05-05T07:25:18.115Z,16.80
2023-05-05T07:27:45.058Z,16.70
2023-05-05T07:30:16.326Z,16.70
2023-05-05T07:32:44.194Z,16.80
2023-05-05T07:35:10.982Z,17.00
2023-05-05T07:37:37.777Z,17.10
2023-05-05T07:40:04.920Z,17.10
2023-05-05T07:42:31.581Z,17.30
2023-05-05T07:44:58.369Z,17.20
2023-05-05T07:47:25.174Z,17.40
2023-05-05T07:49:52.116Z,17.70
2023-05-05T07:52:19.488Z,17.90
2023-05-05T07:54:48.554Z,18.10
2023-05-05T07:57:15.568Z,18.00
2023-05-05T07:59:45.174Z,18.10
2023-05-05T08:02:12.704Z,18.40
2023-05-05T08:04:43.453Z,18.60
2023-05-05T08:07:10.847Z,18.60
2023-05-05T08:09:37.827Z,18.50
2023-05-05T08:12:04.847Z,18.40
2023-05-05T08:14:32.610Z,18.30
2023-05-05T08:16:59.321Z,18.60
2023-05-05T08:19:29.411Z,18.90
2023-05-05T08:21:58.937Z,19.10
2023-05-05T08:24:28.188Z,18.80
2023-05-05T08:26:55.976Z,19.10
2023-05-05T08:29:22.876Z,19.20
2023-05-05T08:31:49.864Z,19.00
2023-05-05T08:34:19.679Z,19.20
2023-05-05T08:36:46.398Z,19.20
2023-05-05T08:39:13.540Z,19.50
2023-05-05T08:41:40.346Z,19.80
2023-05-05T08:44:08.545Z,19.80
2023-05-05T08:46:36.688Z,20.10
2023-05-05T08:49:07.824Z,20.20
2023-05-05T08:51:42.396Z,20.40
2023-05-05T08:54:23.402Z,20.40
2023-05-05T08:56:51.493Z,20.40
2023-05-05T08:59:20.865Z,20.30
2023-05-05T09:01:47.961Z,20.50
2023-05-05T09:04:15.451Z,20.60
2023-05-05T09:06:42.290Z,20.50
2023-05-05T09:09:09.400Z,20.50
2023-05-05T09:11:37.029Z,20.40
2023-05-05T09:14:03.709Z,20.70
2023-05-05T09:16:30.507Z,20.80
2023-05-05T09:19:04.242Z,20.80
2023-05-05T09:21:32.156Z,21.00
2023-05-05T09:24:12.567Z,21.10
2023-05-05T09:26:44.743Z,21.20
2023-05-05T09:29:18.421Z,21.30
2023-05-05T09:31:45.397Z,21.30
2023-05-05T09:34:16.921Z,21.30
2023-05-05T09:36:47.709Z,21.00
2023-05-05T09:39:19.102Z,21.10
2023-05-05T09:41:46.847Z,21.50
2023-05-05T09:44:16.887Z,21.70
2023-05-05T09:46:55.134Z,21.80
2023-05-05T09:49:25.238Z,21.90
2023-05-05T09:51:52.763Z,21.80
2023-05-05T09:54:23.896Z,21.80
2023-05-05T09:56:52.185Z,21.70
2023-05-05T09:59:19.532Z,21.60
2023-05-05T10:01:46.579Z,21.60
2023-05-05T10:04:27.922Z,21.60
2023-05-05T10:06:56.483Z,21.50
2023-05-05T10:09:24.360Z,21.30
2023-05-05T10:11:51.718Z,21.30
2023-05-05T10:14:19.529Z,21.40
2023-05-05T10:16:51.029Z,21.50
2023-05-05T10:19:20.954Z,21.40
2023-05-05T10:21:51.589Z,21.30
2023-05-05T10:24:44.520Z,21.30
2023-05-05T10:27:17.096Z,21.20
2023-05-05T10:29:59.431Z,21.40
2023-05-05T10:35:03.649Z,21.80
2023-05-05T10:37:30.934Z,21.70
2023-05-05T10:39:58.551Z,21.60
2023-05-05T10:42:25.435Z,21.60
2023-05-05T10:44:52.233Z,21.50
2023-05-05T10:47:20.763Z,21.30
2023-05-05T10:50:19.253Z,21.20
2023-05-05T10:53:32.581Z,21.40
2023-05-05T10:56:26.588Z,21.60
2023-05-05T10:59:00.105Z,21.70
2023-05-05T11:01:35.305Z,21.70
2023-05-05T11:04:22.357Z,21.60
2023-05-05T11:07:07.723Z,21.60
2023-05-05T11:09:41.999Z,21.60
2023-05-05T11:12:09.106Z,21.60
2023-05-05T11:14:35.910Z,21.40
2023-05-05T11:17:02.627Z,21.20
2023-05-05T11:19:46.727Z,21.10
2023-05-05T11:22:13.859Z,21.20
2023-05-05T11:24:42.140Z,21.30
2023-05-05T11:27:10.054Z,21.20
2023-05-05T11:30:04.832Z,21.10
2023-05-05T11:32:33.561Z,21.00
2023-05-05T11:35:01.283Z,20.80
2023-05-05T11:37:28.432Z,20.90
2023-05-05T11:40:07.449Z,21.20
2023-05-05T11:42:34.530Z,21.10
2023-05-05T11:45:02.111Z,21.10
2023-05-05T11:47:29.912Z,21.00
2023-05-05T11:49:57.168Z,21.10
2023-05-05T11:52:28.078Z,21.20
2023-05-05T11:55:01.507Z,21.00
2023-05-05T11:57:32.407Z,20.90
2023-05-05T12:00:02.562Z,21.00
2023-05-05T12:02:31.544Z,21.10
2023-05-05T12:04:59.603Z,21.00
2023-05-05T12:07:33.032Z,21.20
2023-05-05T12:10:01.817Z,21.10
2023-05-05T12:12:37.516Z,21.30
2023-05-05T12:15:07.690Z,21.30
2023-05-05T12:17:45.224Z,21.50
2023-05-05T12:20:14.943Z,21.70
2023-05-05T12:22:44.636Z,21.90
2023-05-05T12:25:15.271Z,22.10
2023-05-05T12:27:52.580Z,22.30
2023-05-05T12:30:23.111Z,22.40
2023-05-05T12:32:51.146Z,22.60
2023-05-05T12:35:24.185Z,22.80
2023-05-05T12:37:55.104Z,23.00
2023-05-05T12:40:45.437Z,23.10
2023-05-05T12:43:31.350Z,23.00
2023-05-05T12:46:02.128Z,23.00
2023-05-05T12:48:29.663Z,23.20
2023-05-05T12:51:16.887Z,23.50
2023-05-05T12:53:44.602Z,23.80
2023-05-05T12:56:30.448Z,23.90
2023-05-05T12:58:57.386Z,23.60
2023-05-05T13:01:26.492Z,23.50
2023-05-05T13:04:07.225Z,23.60
2023-05-05T13:06:34.402Z,23.30
2023-05-05T13:09:01.086Z,23.20
2023-05-05T13:11:27.746Z,22.90
2023-05-05T13:13:54.443Z,22.80
2023-05-05T13:16:21.148Z,22.80
2023-05-05T13:18:49.538Z,22.90
2023-05-05T13:21:16.676Z,22.90
2023-05-05T13:23:44.283Z,23.00
2023-05-05T13:26:12.289Z,23.20
2023-05-05T13:28:39.668Z,22.90
2023-05-05T13:31:07.013Z,23.00
2023-05-05T13:33:34.689Z,23.30
2023-05-05T13:36:02.221Z,23.50
2023-05-05T13:38:29.354Z,23.80
2023-05-05T13:40:56.009Z,23.70
2023-05-05T13:43:22.702Z,23.60
2023-05-05T13:45:49.375Z,23.60
2023-05-05T13:48:16.065Z,23.70
2023-05-05T13:50:43.010Z,23.70
2023-05-05T13:53:09.891Z,23.80
2023-05-05T13:55:36.718Z,23.70
2023-05-05T13:58:03.402Z,23.80
2023-05-05T14:00:31.560Z,24.20
2023-05-05T14:02:58.243Z,24.40
2023-05-05T14:05:24.955Z,24.70
2023-05-05T14:07:52.123Z,24.90
2023-05-05T14:10:18.757Z,24.70
2023-05-05T14:12:45.825Z,24.70
2023-05-05T14:15:12.581Z,24.60
2023-05-05T14:17:39.446Z,24.20
2023-05-05T14:20:07.035Z,24.00
2023-05-05T14:22:33.932Z,24.30
2023-05-05T14:25:00.566Z,24.50
2023-05-05T14:27:27.227Z,24.50
2023-05-05T14:29:54.181Z,24.30
2023-05-05T14:32:21.066Z,24.20
2023-05-05T14:34:50.295Z,24.30
2023-05-05T14:37:17.264Z,24.50
2023-05-05T14:39:43.915Z,24.60
2023-05-05T14:42:10.581Z,24.40
2023-05-05T14:44:37.248Z,24.20
2023-05-05T14:47:04.037Z,24.00
2023-05-05T14:49:30.729Z,23.80
2023-05-05T14:51:57.414Z,23.90
2023-05-05T14:54:28.863Z,24.00
2023-05-05T14:56:56.367Z,23.80
2023-05-05T14:59:23.062Z,23.90
2023-05-05T15:01:49.811Z,23.80
2023-05-05T15:04:16.559Z,23.90
2023-05-05T15:06:43.261Z,24.00
2023-05-05T15:09:10.279Z,24.10
2023-05-05T15:11:37.000Z,24.10
2023-05-05T15:14:03.629Z,24.10
2023-05-05T15:16:30.302Z,24.00
2023-05-05T15:18:57.277Z,24.00
2023-05-05T15:21:23.944Z,23.90
2023-05-05T15:23:50.591Z,23.60
2023-05-05T15:26:17.239Z,23.60
2023-05-05T15:28:43.899Z,23.60
2023-05-05T15:31:10.653Z,23.50
2023-05-05T15:33:37.401Z,23.30
2023-05-05T15:36:04.280Z,23.20
2023-05-05T15:38:31.176Z,23.40
2023-05-05T15:40:57.861Z,23.50
2023-05-05T15:43:24.497Z,23.50
2023-05-05T15:45:53.923Z,23.30
2023-05-05T15:48:20.660Z,23.30
2023-05-05T15:50:47.289Z,23.20
2023-05-05T15:53:20.950Z,23.10
2023-05-05T15:55:55.061Z,23.10
2023-05-05T15:58:21.780Z,23.00
2023-05-05T16:00:48.454Z,23.00
2023-05-05T16:03:15.338Z,23.00
2023-05-05T16:05:41.999Z,22.80
2023-05-05T16:08:10.329Z,22.90
2023-05-05T16:10:37.442Z,22.90
2023-05-05T16:13:04.195Z,22.70
2023-05-05T16:15:30.857Z,22.60
2023-05-05T16:17:57.587Z,22.70
2023-05-05T16:20:24.311Z,22.60
2023-05-05T16:22:51.043Z,22.70
2023-05-05T16:25:19.897Z,22.60
2023-05-05T16:27:46.599Z,22.50
2023-05-05T16:30:15.408Z,22.40
2023-05-05T16:32:42.354Z,22.30
2023-05-05T16:35:10.530Z,22.30
2023-05-05T16:37:37.361Z,22.00
2023-05-05T16:40:05.389Z,21.90
2023-05-05T16:42:34.058Z,21.90
2023-05-05T16:45:00.790Z,22.00
2023-05-05T16:47:27.716Z,21.90
2023-05-05T16:49:54.473Z,21.80
2023-05-05T16:52:21.318Z,21.50
2023-05-05T16:54:55.017Z,21.10
2023-05-05T16:57:22.950Z,20.80
2023-05-05T16:59:50.266Z,20.00
2023-05-05T17:02:16.928Z,19.10
2023-05-05T17:04:43.622Z,18.40
2023-05-05T17:07:10.723Z,17.70
2023-05-05T17:09:37.934Z,17.10
2023-05-05T17:12:05.001Z,16.80
2023-05-05T17:14:32.386Z,16.50
2023-05-05T17:16:59.091Z,16.30
2023-05-05T17:19:25.911Z,15.70
2023-05-05T17:21:52.683Z,15.70
2023-05-05T17:24:19.374Z,15.90
2023-05-05T17:26:47.555Z,15.90
2023-05-05T17:29:15.219Z,16.00
2023-05-05T17:31:42.221Z,16.20
2023-05-05T17:34:09.027Z,15.90
2023-05-05T17:36:36.315Z,15.80
2023-05-05T17:39:03.151Z,15.70
2023-05-05T17:41:30.083Z,15.70
2023-05-05T17:43:57.263Z,15.50
2023-05-05T17:46:24.209Z,15.40
2023-05-05T17:48:54.285Z,15.50
2023-05-05T17:51:20.992Z,15.80
2023-05-05T17:53:47.918Z,16.00
2023-05-05T17:56:14.880Z,16.20
2023-05-05T17:58:42.060Z,16.30
2023-05-05T18:01:08.872Z,16.40
2023-05-05T18:03:36.074Z,16.50
2023-05-05T18:06:04.007Z,16.60
2023-05-05T18:08:31.196Z,16.70
2023-05-05T18:10:57.833Z,16.70
2023-05-05T18:13:24.549Z,16.50
2023-05-05T18:15:51.207Z,16.30
2023-05-05T18:18:17.880Z,16.50
2023-05-05T18:20:44.835Z,16.50
2023-05-05T18:23:11.517Z,16.40
2023-05-05T18:25:38.291Z,16.30
2023-05-05T18:28:05.157Z,16.60
2023-05-05T18:30:32.630Z,16.70
2023-05-05T18:32:59.484Z,16.70
2023-05-05T18:35:26.202Z,16.80
2023-05-05T18:37:54.388Z,16.90
2023-05-05T18:40:21.926Z,16.60
2023-05-05T18:42:48.634Z,16.60
2023-05-05T18:45:15.361Z,16.40
2023-05-05T18:47:42.103Z,16.50
2023-05-05T18:50:09.863Z,16.40
2023-05-05T18:52:36.562Z,16.20
2023-05-05T18:55:03.569Z,16.20
2023-05-05T18:57:30.286Z,16.20
2023-05-05T18:59:56.986Z,16.30
2023-05-05T19:02:23.621Z,16.30
2023-05-05T19:04:51.154Z,16.50
2023-05-05T19:07:34.377Z,16.40
2023-05-05T19:10:01.729Z,16.30
2023-05-05T19:12:28.373Z,16.20
2023-05-05T19:14:55.096Z,16.20
2023-05-05T19:17:21.765Z,16.30
2023-05-05T19:19:48.433Z,16.30
2023-05-05T19:22:17.217Z,16.40
2023-05-05T19:24:47.140Z,16.40
2023-05-05T19:27:16.725Z,16.40
2023-05-05T19:29:44.184Z,16.40
2023-05-05T19:32:11.009Z,16.30
2023-05-05T19:34:37.732Z,16.10
2023-05-05T19:37:04.399Z,16.00
2023-05-05T19:39:37.457Z,16.00
2023-05-05T19:42:04.611Z,15.90
2023-05-05T19:44:31.278Z,16.00
2023-05-05T19:46:58.626Z,16.10
2023-05-05T19:49:25.937Z,16.10
2023-05-05T19:51:54.248Z,16.00
2023-05-05T19:54:21.253Z,15.90
2023-05-05T19:56:48.146Z,16.10
2023-05-05T19:59:14.951Z,16.10
2023-05-05T20:01:45.175Z,16.00
2023-05-05T20:04:14.192Z,16.00
2023-05-05T20:06:40.994Z,16.10
2023-05-05T20:09:07.940Z,16.00
2023-05-05T20:11:35.718Z,16.00
2023-05-05T20:14:02.827Z,16.10
2023-05-05T20:16:30.030Z,16.00
2023-05-05T20:18:56.934Z,15.90
2023-05-05T20:21:23.927Z,15.80
2023-05-05T20:23:50.995Z,15.80
2023-05-05T20:26:17.789Z,15.70
2023-05-05T20:28:45.676Z,15.90
2023-05-05T20:31:14.496Z,15.80
2023-05-05T20:33:41.218Z,15.80
2023-05-05T20:36:08.197Z,15.80
2023-05-05T20:38:34.976Z,15.80
2023-05-05T20:41:01.915Z,15.90
2023-05-05T20:43:28.736Z,16.00
2023-05-05T20:45:55.639Z,15.90
2023-05-05T20:48:22.433Z,16.20
2023-05-05T20:50:51.036Z,16.00
2023-05-05T20:53:19.082Z,16.10
2023-05-05T20:55:45.981Z,16.10
2023-05-05T20:58:12.889Z,15.90
2023-05-05T21:00:39.999Z,15.90
2023-05-05T21:03:06.998Z,15.80
2023-05-05T21:05:37.343Z,15.90
2023-05-05T21:08:04.927Z,15.90
2023-05-05T21:10:32.958Z,15.90
2023-05-05T21:13:01.793Z,15.90
2023-05-05T21:15:28.805Z,15.80
2023-05-05T21:17:56.962Z,15.90
2023-05-05T21:20:23.920Z,16.20
2023-05-05T21:22:50.918Z,16.20
2023-05-05T21:25:20.167Z,16.10
2023-05-05T21:27:48.393Z,15.90
2023-05-05T21:30:16.606Z,15.80
2023-05-05T21:32:43.968Z,15.90
2023-05-05T21:35:11.118Z,16.00
2023-05-05T21:37:39.061Z,15.90
2023-05-05T21:40:09.215Z,15.80
2023-05-05T21:42:36.173Z,15.80
2023-05-05T21:45:02.952Z,15.80
2023-05-05T21:47:29.937Z,15.80
2023-05-05T21:49:58.364Z,15.70
2023-05-05T21:52:28.286Z,15.60
2023-05-05T21:54:55.026Z,15.60
2023-05-05T21:57:21.890Z,15.60
2023-05-05T21:59:48.829Z,15.60
2023-05-05T22:02:15.459Z,15.60
2023-05-05T22:04:42.400Z,15.60
2023-05-05T22:07:09.059Z,15.60
2023-05-05T22:09:36.172Z,15.50
2023-05-05T22:12:02.910Z,15.70
2023-05-05T22:14:29.595Z,15.70
2023-05-05T22:16:56.283Z,15.80
2023-05-05T22:19:23.508Z,15.80
2023-05-05T22:21:50.156Z,15.70
2023-05-05T22:24:16.902Z,15.70
2023-05-05T22:26:43.673Z,15.70
2023-05-05T22:29:11.283Z,15.50
2023-05-05T22:31:38.187Z,15.50
2023-05-05T22:34:05.053Z,15.70
2023-05-05T22:36:31.739Z,15.70
2023-05-05T22:38:58.671Z,15.50
2023-05-05T22:41:25.527Z,15.30
2023-05-05T22:43:52.220Z,15.40
2023-05-05T22:46:18.829Z,15.30
2023-05-05T22:48:46.014Z,15.30
2023-05-05T22:51:13.386Z,15.30
2023-05-05T22:53:40.130Z,15.30
2023-05-05T22:56:06.938Z,15.30
2023-05-05T22:58:33.576Z,15.30
2023-05-05T23:01:00.274Z,15.40
2023-05-05T23:03:27.074Z,15.50
2023-05-05T23:05:53.702Z,15.30
2023-05-05T23:08:20.888Z,15.30
2023-05-05T23:10:47.533Z,15.40
2023-05-05T23:13:14.295Z,15.40
2023-05-05T23:15:41.200Z,15.30
2023-05-05T23:18:08.046Z,15.30
2023-05-05T23:20:34.779Z,15.40
2023-05-05T23:23:01.465Z,15.40
2023-05-05T23:25:28.323Z,15.50
2023-05-05T23:27:54.964Z,15.40
2023-05-05T23:30:21.709Z,15.30
2023-05-05T23:32:48.702Z,15.20
2023-05-05T23:35:15.418Z,15.10
2023-05-05T23:37:42.161Z,14.90
2023-05-05T23:40:09.255Z,14.90
2023-05-05T23:42:35.893Z,14.90
2023-05-05T23:45:03.073Z,14.90
2023-05-05T23:47:30.695Z,15.00
2023-05-05T23:49:57.807Z,15.10
2023-05-05T23:52:24.571Z,15.20
2023-05-05T23:54:51.231Z,15.50
2023-05-05T23:57:17.880Z,15.40
2023-05-05T23:59:44.678Z,15.30
